Maryknoll, NY (10545)

11:32 AM EDT on August 25, 2016 (GMT -0400)
APRSWXNET | | Change Station

Elev 484 ft 41.18 °N, 73.81 °W | Updated 32 minutes ago

Partly Cloudy
Partly Cloudy
80.0 °F
Feels Like 82 °F
N
0.0
Wind Variable Wind from SSW
Gusts 5.0 mph

Today
High -- | Low -- °F
--% Chance of Precip.
Yesterday
High -- | Low -- °F
Precip. -- in
Pressure 30.08 in
Visibility 10.0 miles
Clouds Few 3000 ft
Heat Index 82 °F
Dew Point 67.0 °F
Humidity 64%
Rainfall in
Snow Depth Not available.
6:15 AM 7:38 PM
Last Quarter, 44% visible
METAR KHPN 251456Z 19005KT 10SM FEW030 27/18 A3010 RMK AO2 SLP185 T02670183 58012
Pressure 30.08 in
Visibility 10.0 miles
Clouds Few 3000 ft
Heat Index 82 °F
Dew Point 67.0 °F
Humidity 64%
Rainfall in
Snow Depth Not available.
6:15 AM 7:38 PM
Last Quarter, 44% visible
METAR KHPN 251456Z 19005KT 10SM FEW030 27/18 A3010 RMK AO2 SLP185 T02670183 58012

10-Day Weather Forecast

Almanac

Astronomy

Aug. 25, 2016 Rise Set
Actual Time
Civil Twilight
Nautical Twilight
Astronomical Twilight
Moon
Length of Visible Light
Length of Day
Tomorrow will be .
, % of the Moon is Illuminated

Today's Extremes

State Highs State Lows

Community

WunderPhotos

Upload Photos

1,934,864 photos uploaded!

WunderBlog® & News

Nearby

Air Quality

  Air Quality AQ Index Pollutant
Not available.

Snow Depth

Station Depth Elevation

Earthquake Activity

City Distance Mag. Time & Date
Minimum magnitude displayed is 2.5.

Coastal Water Temperatures

Place Temperature

Stations

Nearby Weather Stations

Station Location Temp. Windchill Dew Point Humidity Wind Precip. Elev Updated Type
                   

Watches & Warnings

There are currently no watches in effect.